createdAt,value
2018-12-18T00:01:51.714Z,55.99
2018-12-18T00:05:57.860Z,55.05
2018-12-18T00:10:01.944Z,55.63
2018-12-18T00:14:06.984Z,55.73
2018-12-18T00:18:11.073Z,55.55
2018-12-18T00:22:15.173Z,55.02
2018-12-18T00:26:19.326Z,55.10
2018-12-18T00:30:23.415Z,55.34
2018-12-18T00:34:27.537Z,55.58
2018-12-18T00:38:31.666Z,55.06
2018-12-18T00:42:35.746Z,54.56
2018-12-18T00:46:39.825Z,53.98
2018-12-18T00:50:43.923Z,53.78
2018-12-18T00:54:48.054Z,53.25
2018-12-18T00:58:52.141Z,53.33
2018-12-18T01:02:56.312Z,53.06
2018-12-18T01:07:01.170Z,52.80
2018-12-18T01:11:05.252Z,52.62
2018-12-18T01:15:09.477Z,52.99
2018-12-18T01:19:14.638Z,53.38
2018-12-18T01:23:18.721Z,53.16
2018-12-18T01:27:22.822Z,53.24
2018-12-18T01:31:26.935Z,53.69
2018-12-18T01:35:31.073Z,53.50
2018-12-18T01:39:35.154Z,53.21
2018-12-18T01:43:39.235Z,53.55
2018-12-18T01:47:43.310Z,54.29
2018-12-18T01:51:47.403Z,54.16
2018-12-18T01:55:51.494Z,53.19
2018-12-18T01:59:55.573Z,54.00
2018-12-18T02:04:05.938Z,54.86
2018-12-18T02:08:06.770Z,52.71
2018-12-18T02:12:10.857Z,53.00
2018-12-18T02:16:14.949Z,53.97
2018-12-18T02:20:19.068Z,53.38
2018-12-18T02:24:24.237Z,54.25
2018-12-18T02:28:28.353Z,54.95
2018-12-18T02:32:32.449Z,54.27
2018-12-18T02:36:36.632Z,54.27
2018-12-18T02:40:40.662Z,54.12
2018-12-18T02:44:44.815Z,54.29
2018-12-18T02:48:48.898Z,54.09
2018-12-18T02:52:52.988Z,53.12
2018-12-18T02:56:57.088Z,53.41
2018-12-18T03:01:01.177Z,54.22
2018-12-18T03:05:06.529Z,54.77
2018-12-18T03:09:10.650Z,56.27
2018-12-18T03:13:14.784Z,55.36
2018-12-18T03:17:18.850Z,53.37
2018-12-18T03:21:22.945Z,56.76
2018-12-18T03:25:27.094Z,56.01
2018-12-18T03:33:48.211Z,57.37
2018-12-18T03:37:52.513Z,56.92
2018-12-18T03:41:56.746Z,53.06
2018-12-18T03:46:00.855Z,52.95
2018-12-18T03:50:06.513Z,54.87
2018-12-18T03:54:10.607Z,56.96
2018-12-18T03:58:14.722Z,55.69
2018-12-18T04:02:18.879Z,54.18
2018-12-18T04:06:22.970Z,53.49
2018-12-18T04:10:27.086Z,54.14
2018-12-18T04:14:31.170Z,54.25
2018-12-18T04:18:35.274Z,53.58
2018-12-18T04:22:39.434Z,53.84
2018-12-18T04:26:43.518Z,54.50
2018-12-18T04:30:47.611Z,54.96
2018-12-18T04:34:51.755Z,54.92
2018-12-18T04:38:55.880Z,55.09
2018-12-18T04:42:59.972Z,54.60
2018-12-18T04:47:04.223Z,55.52
2018-12-18T04:51:08.324Z,53.94
2018-12-18T04:55:12.474Z,54.70
2018-12-18T04:59:16.553Z,54.24
2018-12-18T05:03:20.668Z,54.64
2018-12-18T05:07:24.745Z,54.82
2018-12-18T05:11:28.934Z,54.61
2018-12-18T05:15:33.091Z,54.77
2018-12-18T05:19:37.173Z,55.44
2018-12-18T05:23:41.256Z,54.80
2018-12-18T05:27:45.344Z,55.63
2018-12-18T05:31:49.475Z,55.08
2018-12-18T05:35:54.169Z,55.37
2018-12-18T05:39:58.250Z,54.91
2018-12-18T05:44:02.394Z,55.94
2018-12-18T05:48:06.505Z,55.83
2018-12-18T05:52:10.622Z,55.03
2018-12-18T05:56:14.726Z,55.42
2018-12-18T06:00:18.810Z,55.70
2018-12-18T06:04:22.920Z,55.07
2018-12-18T06:08:28.082Z,55.07
2018-12-18T06:12:32.774Z,55.85
2018-12-18T06:16:36.849Z,54.88
2018-12-18T06:20:40.933Z,54.35
2018-12-18T06:24:45.117Z,54.81
2018-12-18T06:28:49.172Z,55.84
2018-12-18T06:32:53.321Z,55.14
2018-12-18T06:36:57.407Z,54.92
2018-12-18T06:41:01.516Z,54.43
2018-12-18T06:45:07.281Z,55.50
2018-12-18T06:49:11.373Z,55.07
2018-12-18T06:53:15.514Z,54.96
2018-12-18T06:57:19.600Z,53.55
2018-12-18T07:01:23.677Z,54.34
2018-12-18T07:05:27.778Z,53.56
2018-12-18T07:09:31.826Z,54.02
2018-12-18T07:13:35.911Z,54.13
2018-12-18T07:17:40.005Z,55.46
2018-12-18T07:21:44.072Z,55.50
2018-12-18T07:25:48.388Z,55.32
2018-12-18T07:29:52.446Z,54.49
2018-12-18T07:33:56.528Z,53.79
2018-12-18T07:38:00.593Z,54.32
2018-12-18T07:42:04.697Z,54.04
2018-12-18T07:46:08.804Z,53.99
2018-12-18T07:50:13.025Z,55.77
2018-12-18T07:54:17.141Z,55.38
2018-12-18T07:58:21.313Z,54.47
2018-12-18T08:02:25.597Z,54.08
2018-12-18T08:06:29.719Z,53.10
2018-12-18T08:10:33.812Z,53.48
2018-12-18T08:14:38.916Z,53.17
2018-12-18T08:18:43.093Z,53.24
2018-12-18T08:22:47.282Z,53.54
2018-12-18T08:26:51.455Z,54.79
2018-12-18T08:30:55.541Z,53.40
2018-12-18T08:34:59.621Z,50.79
2018-12-18T08:39:06.253Z,49.06
2018-12-18T08:43:11.389Z,49.79
2018-12-18T08:47:15.493Z,48.75
2018-12-18T08:51:19.575Z,48.75
2018-12-18T08:55:23.699Z,50.60
2018-12-18T08:59:27.829Z,51.12
2018-12-18T09:03:31.916Z,51.73
2018-12-18T09:07:36.053Z,52.35
2018-12-18T09:11:40.265Z,55.19
2018-12-18T09:15:50.737Z,54.02
2018-12-18T09:19:54.801Z,51.67
2018-12-18T09:23:58.881Z,51.50
2018-12-18T09:28:03.021Z,51.91
2018-12-18T09:32:07.101Z,51.56
2018-12-18T09:36:11.265Z,51.41
2018-12-18T09:44:42.241Z,51.40
2018-12-18T09:48:46.345Z,51.77
2018-12-18T09:52:50.440Z,51.64
2018-12-18T09:56:54.510Z,51.48
2018-12-18T10:00:58.661Z,50.73
2018-12-18T10:05:02.752Z,50.80
2018-12-18T10:09:09.710Z,51.36
2018-12-18T10:13:13.665Z,51.24
2018-12-18T10:17:17.782Z,51.07
2018-12-18T10:21:21.867Z,49.64
2018-12-18T10:25:26.213Z,49.94
2018-12-18T10:29:30.315Z,50.82
2018-12-18T10:33:34.478Z,50.30
2018-12-18T10:37:38.571Z,50.59
2018-12-18T10:41:42.665Z,50.43
2018-12-18T10:45:46.839Z,50.35
2018-12-18T10:49:51.155Z,50.39
2018-12-18T10:53:55.256Z,50.56
2018-12-18T10:57:59.340Z,51.68
2018-12-18T11:02:04.183Z,52.05
2018-12-18T11:06:09.988Z,51.79
2018-12-18T11:10:14.607Z,52.32
2018-12-18T11:14:19.245Z,51.24
2018-12-18T11:18:23.405Z,44.18
2018-12-18T11:22:27.507Z,40.75
2018-12-18T11:26:31.597Z,42.73
2018-12-18T11:30:35.733Z,44.84
2018-12-18T11:34:39.909Z,45.05
2018-12-18T11:38:44.034Z,45.59
2018-12-18T11:42:48.120Z,40.15
2018-12-18T11:46:52.213Z,34.94
2018-12-18T11:50:57.302Z,32.66
2018-12-18T11:55:01.442Z,30.10
2018-12-18T11:59:05.554Z,27.90
2018-12-18T12:03:09.650Z,26.90
2018-12-18T12:07:15.747Z,27.35
2018-12-18T12:11:19.881Z,27.99
2018-12-18T12:15:23.996Z,29.55
2018-12-18T12:19:28.122Z,30.66
2018-12-18T12:23:32.237Z,29.79
2018-12-18T12:32:12.756Z,29.88
2018-12-18T12:36:16.939Z,29.91
2018-12-18T12:40:21.040Z,31.57
2018-12-18T12:44:25.134Z,35.21
2018-12-18T12:52:53.834Z,40.26
2018-12-18T12:56:58.198Z,40.54
2018-12-18T13:01:02.391Z,40.92
2018-12-18T13:09:27.270Z,41.80
2018-12-18T13:13:31.364Z,42.35
2018-12-18T13:17:35.477Z,41.93
2018-12-18T13:21:39.549Z,41.71
2018-12-18T13:25:43.629Z,42.04
2018-12-18T13:29:48.034Z,42.37
2018-12-18T13:33:52.117Z,41.34
2018-12-18T13:37:56.217Z,42.21
2018-12-18T13:42:00.325Z,41.41
2018-12-18T13:46:04.470Z,41.75
2018-12-18T13:50:08.579Z,42.11
2018-12-18T13:54:12.766Z,41.76
2018-12-18T13:58:16.849Z,41.24
2018-12-18T14:02:21.672Z,42.41
2018-12-18T14:06:25.829Z,41.75
2018-12-18T14:10:29.905Z,42.28
2018-12-18T14:14:34.057Z,42.29
2018-12-18T14:18:38.310Z,41.90
2018-12-18T14:22:42.382Z,42.80
2018-12-18T14:26:46.453Z,42.28
2018-12-18T14:30:50.521Z,42.58
2018-12-18T14:34:54.608Z,42.34
2018-12-18T14:38:58.695Z,42.91
2018-12-18T14:43:02.758Z,42.92
2018-12-18T14:47:06.997Z,42.83
2018-12-18T14:51:11.082Z,43.27
2018-12-18T14:55:15.243Z,42.97
2018-12-18T14:59:19.401Z,43.43
2018-12-18T15:03:23.463Z,43.36
2018-12-18T15:07:27.564Z,42.90
2018-12-18T15:11:31.657Z,42.96
2018-12-18T15:15:35.783Z,43.58
2018-12-18T15:19:39.910Z,43.53
2018-12-18T15:23:44.597Z,44.35
2018-12-18T15:27:48.673Z,44.41
2018-12-18T15:31:53.857Z,43.97
2018-12-18T15:35:58.306Z,44.02
2018-12-18T15:40:02.388Z,43.79
2018-12-18T15:44:07.561Z,43.90
2018-12-18T15:48:11.639Z,43.24
2018-12-18T15:52:15.736Z,43.78
2018-12-18T15:56:19.877Z,44.08
2018-12-18T16:00:23.965Z,44.35
2018-12-18T16:04:28.050Z,43.50
2018-12-18T16:08:32.152Z,44.23
2018-12-18T16:12:36.238Z,44.67
2018-12-18T16:16:40.294Z,45.79
2018-12-18T16:20:44.381Z,45.16
2018-12-18T16:24:48.450Z,45.80
2018-12-18T16:28:52.636Z,45.56
2018-12-18T16:32:56.705Z,46.09
2018-12-18T16:37:00.777Z,44.52
2018-12-18T16:41:04.873Z,44.35
2018-12-18T16:45:08.989Z,44.20
2018-12-18T16:49:13.074Z,44.36
2018-12-18T16:53:17.206Z,44.62
2018-12-18T16:57:23.762Z,44.42
2018-12-18T17:01:51.330Z,44.12
2018-12-18T17:05:56.303Z,44.41
2018-12-18T17:10:01.192Z,44.77
2018-12-18T17:14:05.263Z,44.32
2018-12-18T17:18:10.228Z,44.86
2018-12-18T17:26:53.266Z,45.23
2018-12-18T17:30:59.080Z,45.47
2018-12-18T17:35:03.239Z,46.12
2018-12-18T17:39:07.850Z,46.28
2018-12-18T17:43:11.931Z,46.50
2018-12-18T17:47:16.045Z,45.88
2018-12-18T17:51:20.213Z,46.06
2018-12-18T17:55:47.760Z,46.12
2018-12-18T17:59:53.724Z,46.21
2018-12-18T18:03:57.797Z,47.67
2018-12-18T18:08:02.466Z,47.70
2018-12-18T18:12:07.273Z,46.51
2018-12-18T18:16:11.361Z,47.35
2018-12-18T18:20:15.617Z,47.63
2018-12-18T18:24:19.725Z,47.75
2018-12-18T18:28:23.817Z,47.73
2018-12-18T18:41:54.845Z,47.62
2018-12-18T18:50:48.948Z,48.75
2018-12-18T18:59:48.593Z,48.35
2018-12-18T19:08:48.275Z,46.73
2018-12-18T19:17:48.099Z,46.59
2018-12-18T19:26:47.830Z,47.14
2018-12-18T19:35:47.226Z,47.74
2018-12-18T19:48:49.026Z,48.20
2018-12-18T19:57:48.803Z,47.88
2018-12-18T20:06:48.449Z,48.45
2018-12-18T20:15:48.302Z,49.83
2018-12-18T20:24:07.126Z,48.79
2018-12-18T20:32:50.554Z,49.07
2018-12-18T20:36:54.618Z,49.64
2018-12-18T20:40:58.770Z,49.25
2018-12-18T20:45:03.130Z,49.15
2018-12-18T20:53:48.645Z,49.97
2018-12-18T20:57:53.710Z,49.69
2018-12-18T21:01:57.967Z,49.51
2018-12-18T21:14:50.143Z,49.81
2018-12-18T21:18:54.259Z,49.82
2018-12-18T21:22:58.348Z,49.72
2018-12-18T21:27:02.438Z,49.99
2018-12-18T21:31:06.518Z,48.94
2018-12-18T21:35:10.635Z,49.32
2018-12-18T21:43:49.929Z,49.59
2018-12-18T21:47:54.009Z,49.40
2018-12-18T21:51:58.201Z,48.80
2018-12-18T21:56:02.338Z,49.08
2018-12-18T22:00:09.513Z,49.39
2018-12-18T22:04:13.590Z,49.35
2018-12-18T22:08:17.922Z,49.69
2018-12-18T22:12:22.016Z,48.91
2018-12-18T22:16:26.106Z,49.43
2018-12-18T22:20:30.169Z,49.92
2018-12-18T22:24:34.237Z,49.89
2018-12-18T22:28:38.339Z,50.09
2018-12-18T22:32:42.594Z,49.59
2018-12-18T22:36:46.728Z,49.94
2018-12-18T22:40:50.816Z,50.58
2018-12-18T22:49:48.159Z,50.28
2018-12-18T22:53:52.249Z,50.49
2018-12-18T22:57:56.433Z,50.60
2018-12-18T23:06:48.162Z,49.01
2018-12-18T23:15:19.218Z,48.25
2018-12-18T23:19:47.054Z,47.66
2018-12-18T23:28:06.017Z,47.29
2018-12-18T23:32:10.148Z,48.72
2018-12-18T23:36:14.373Z,48.72
2018-12-18T23:44:50.183Z,48.70
2018-12-18T23:48:54.262Z,49.56
2018-12-18T23:57:48.455Z,50.25
